Time;durP1;ratioP1;P1;durP2;ratioP2;P2;SDS_P1;SDS_P2;PMS_P1;PMS_P2;Temp;Humidity;BMP_temperature;BMP_pressure;BME280_temperature;BME280_humidity;BME280_pressure;Samples;Min_cycle;Max_cycle;Signal;HPM_P1;HPM_P2
2024/01/12 00:00:23;;;;;;;15.10;3.85;;;;;;;;;;4968496;28;20058;-72
2024/01/12 00:02:50;;;;;;;10.57;3.42;;;;;;;;;;4967899;28;20065;-73
2024/01/12 00:05:17;;;;;;;9.43;2.95;;;;;;;;;;4969718;28;20418;-73
2024/01/12 00:07:45;;;;;;;14.32;2.83;;;;;;;;;;4966292;28;20051;-72
2024/01/12 00:10:12;;;;;;;7.07;3.08;;;;;;;;;;4963481;28;20139;-73
2024/01/12 00:12:41;;;;;;;15.23;3.00;;;;;;;;;;4964430;28;20055;-72
2024/01/12 00:15:08;;;;;;;11.88;3.45;;;;;;;;;;4966314;28;20059;-73
2024/01/12 00:17:36;;;;;;;14.55;3.50;;;;;;;;;;4963161;28;20051;-73
2024/01/12 00:20:04;;;;;;;17.33;3.70;;;;;;;;;;4969058;28;20066;-73
2024/01/12 00:22:31;;;;;;;9.02;3.00;;;;;;;;;;4964795;28;20513;-73
2024/01/12 00:24:59;;;;;;;12.45;3.08;;;;;;;;;;4963623;28;20050;-73
2024/01/12 00:27:27;;;;;;;15.38;3.35;;;;;;;;;;4964474;28;20487;-72
2024/01/12 00:29:55;;;;;;;13.07;3.28;;;;;;;;;;4966380;28;20051;-73
2024/01/12 00:32:23;;;;;;;11.48;3.20;;;;;;;;;;4969110;28;20464;-73
2024/01/12 00:34:50;;;;;;;16.33;3.25;;;;;;;;;;4968055;28;20491;-72
2024/01/12 00:37:17;;;;;;;17.13;3.70;;;;;;;;;;4968433;28;20050;-74
2024/01/12 00:39:44;;;;;;;9.68;3.60;;;;;;;;;;4964385;28;20487;-73
2024/01/12 00:42:12;;;;;;;14.43;2.90;;;;;;;;;;4968168;28;20065;-74
2024/01/12 00:44:39;;;;;;;21.58;3.78;;;;;;;;;;4968965;28;20057;-73
2024/01/12 00:47:07;;;;;;;18.08;2.55;;;;;;;;;;4968313;28;20062;-73
2024/01/12 00:49:35;;;;;;;16.33;3.20;;;;;;;;;;4968740;28;20051;-73
2024/01/12 00:52:02;;;;;;;8.80;3.08;;;;;;;;;;4967845;28;21252;-74
2024/01/12 00:54:29;;;;;;;13.93;3.78;;;;;;;;;;4968337;28;20058;-73
2024/01/12 00:56:57;;;;;;;13.07;4.43;;;;;;;;;;4965296;28;20057;-74
2024/01/12 00:59:24;;;;;;;12.73;3.72;;;;;;;;;;4965247;28;20042;-74
2024/01/12 01:01:54;;;;;;;18.27;4.38;;;;;;;;;;4968906;28;20412;-74
2024/01/12 01:04:22;;;;;;;14.18;3.28;;;;;;;;;;4967635;28;20077;-72
2024/01/12 01:06:50;;;;;;;13.98;3.17;;;;;;;;;;4969112;28;20415;-73
2024/01/12 01:09:17;;;;;;;13.27;3.63;;;;;;;;;;4967403;28;20046;-74
2024/01/12 01:11:44;;;;;;;19.58;3.53;;;;;;;;;;4969278;28;20073;-74
2024/01/12 01:14:11;;;;;;;17.98;4.05;;;;;;;;;;4968674;28;20047;-74
2024/01/12 01:16:38;;;;;;;9.30;3.13;;;;;;;;;;4970108;28;20043;-74
2024/01/12 01:19:06;;;;;;;12.35;3.33;;;;;;;;;;4971487;28;20059;-73
2024/01/12 01:21:35;;;;;;;15.85;3.95;;;;;;;;;;4969566;28;20050;-74
2024/01/12 01:24:02;;;;;;;18.77;3.65;;;;;;;;;;4968127;28;20101;-74
2024/01/12 01:26:29;;;;;;;10.50;3.42;;;;;;;;;;4969734;28;20058;-74
2024/01/12 01:28:56;;;;;;;9.77;3.67;;;;;;;;;;4966686;28;20055;-74
2024/01/12 01:31:24;;;;;;;10.82;3.90;;;;;;;;;;4969341;28;20051;-74
2024/01/12 01:33:51;;;;;;;8.52;3.15;;;;;;;;;;4963888;28;20499;-74
2024/01/12 01:36:18;;;;;;;9.98;3.58;;;;;;;;;;4965677;28;20047;-74
2024/01/12 01:38:47;;;;;;;11.75;3.70;;;;;;;;;;4968439;28;20050;-74
2024/01/12 01:41:14;;;;;;;10.00;3.42;;;;;;;;;;4968338;28;20043;-72
2024/01/12 01:43:41;;;;;;;22.23;3.97;;;;;;;;;;4970503;28;20065;-74
2024/01/12 01:46:09;;;;;;;14.88;3.35;;;;;;;;;;4972024;28;20050;-74
2024/01/12 01:48:36;;;;;;;18.88;3.50;;;;;;;;;;4970966;28;20043;-74
2024/01/12 01:51:04;;;;;;;13.48;3.22;;;;;;;;;;4970694;28;20062;-75
2024/01/12 01:53:31;;;;;;;17.60;5.57;;;;;;;;;;4971094;28;20047;-73
2024/01/12 01:55:59;;;;;;;17.65;3.83;;;;;;;;;;4971354;28;20186;-74
2024/01/12 01:58:27;;;;;;;10.38;2.85;;;;;;;;;;4968678;28;20046;-74
2024/01/12 02:00:54;;;;;;;16.38;3.70;;;;;;;;;;4971827;28;20063;-73
2024/01/12 02:03:21;;;;;;;11.35;3.30;;;;;;;;;;4966956;28;20077;-74
2024/01/12 02:05:50;;;;;;;16.52;3.97;;;;;;;;;;4969664;28;20054;-74
2024/01/12 02:08:17;;;;;;;15.55;3.35;;;;;;;;;;4972280;28;20171;-74
2024/01/12 02:10:45;;;;;;;9.73;3.10;;;;;;;;;;4967589;28;20125;-74
2024/01/12 02:13:13;;;;;;;11.68;2.67;;;;;;;;;;4971146;28;20047;-74
2024/01/12 02:15:41;;;;;;;17.10;4.00;;;;;;;;;;4971577;28;20046;-74
2024/01/12 02:18:08;;;;;;;10.57;2.63;;;;;;;;;;4970136;28;20409;-74
2024/01/12 02:20:35;;;;;;;25.92;3.90;;;;;;;;;;4971038;28;20505;-74
2024/01/12 02:23:04;;;;;;;12.15;3.22;;;;;;;;;;4970261;28;20062;-74
2024/01/12 02:25:31;;;;;;;12.40;2.88;;;;;;;;;;4971539;28;20051;-74
2024/01/12 02:27:58;;;;;;;13.23;3.03;;;;;;;;;;4967043;28;20415;-74
2024/01/12 02:30:26;;;;;;;17.05;3.28;;;;;;;;;;4970355;28;20050;-74
2024/01/12 02:32:53;;;;;;;18.60;4.13;;;;;;;;;;4970903;28;20442;-74
2024/01/12 02:35:20;;;;;;;24.00;3.70;;;;;;;;;;4966295;28;20054;-74
2024/01/12 02:37:48;;;;;;;11.38;3.45;;;;;;;;;;4967798;28;20043;-72
2024/01/12 02:40:16;;;;;;;15.98;3.80;;;;;;;;;;4971871;28;20065;-74
2024/01/12 02:42:44;;;;;;;16.88;3.28;;;;;;;;;;4969038;28;20050;-74
2024/01/12 02:45:11;;;;;;;23.63;3.55;;;;;;;;;;4970162;28;20055;-74
2024/01/12 02:47:38;;;;;;;13.45;3.25;;;;;;;;;;4968808;28;20054;-74
2024/01/12 02:50:06;;;;;;;18.35;3.28;;;;;;;;;;4969697;28;20054;-74
2024/01/12 02:52:35;;;;;;;14.60;3.83;;;;;;;;;;4966950;28;20134;-74
2024/01/12 02:55:03;;;;;;;9.07;2.80;;;;;;;;;;4970840;28;20126;-74
2024/01/12 02:57:32;;;;;;;21.05;3.70;;;;;;;;;;4969897;28;20590;-74
2024/01/12 02:59:59;;;;;;;12.95;2.97;;;;;;;;;;4969954;28;20042;-74
2024/01/12 03:02:26;;;;;;;15.70;3.70;;;;;;;;;;4970256;28;20046;-74
2024/01/12 03:04:56;;;;;;;19.55;3.13;;;;;;;;;;4969687;28;20073;-74
2024/01/12 03:07:24;;;;;;;14.02;2.97;;;;;;;;;;4966418;28;20050;-74
2024/01/12 03:09:51;;;;;;;13.25;3.50;;;;;;;;;;4968726;28;20553;-74
2024/01/12 03:12:18;;;;;;;16.48;3.80;;;;;;;;;;4970542;28;20051;-74
2024/01/12 03:14:47;;;;;;;17.55;3.95;;;;;;;;;;4969591;28;20054;-74
2024/01/12 03:17:14;;;;;;;9.50;2.97;;;;;;;;;;4969616;28;20054;-74
2024/01/12 03:19:41;;;;;;;12.02;3.75;;;;;;;;;;4970840;28;20605;-75
2024/01/12 03:22:09;;;;;;;13.63;3.67;;;;;;;;;;4969599;28;20073;-74
2024/01/12 03:24:36;;;;;;;12.20;3.72;;;;;;;;;;4970201;28;20050;-74
2024/01/12 03:27:03;;;;;;;21.40;4.53;;;;;;;;;;4969166;28;20082;-74
2024/01/12 03:29:30;;;;;;;13.13;3.28;;;;;;;;;;4968025;28;20055;-74
2024/01/12 03:31:59;;;;;;;12.52;3.40;;;;;;;;;;4967010;28;20055;-75
2024/01/12 03:34:26;;;;;;;10.68;3.30;;;;;;;;;;4970520;28;20051;-74
2024/01/12 03:36:53;;;;;;;12.13;3.55;;;;;;;;;;4965925;28;20066;-74
2024/01/12 03:39:21;;;;;;;12.35;3.40;;;;;;;;;;4968818;28;20082;-74
2024/01/12 03:41:48;;;;;;;12.02;3.00;;;;;;;;;;4968287;28;20046;-74
2024/01/12 03:44:15;;;;;;;9.77;3.30;;;;;;;;;;4961945;28;20084;-74
2024/01/12 03:46:43;;;;;;;11.68;3.25;;;;;;;;;;4961771;28;20055;-74
2024/01/12 03:49:11;;;;;;;11.65;3.47;;;;;;;;;;4967453;28;20051;-74
2024/01/12 03:51:39;;;;;;;14.90;3.20;;;;;;;;;;4970412;28;20046;-74
2024/01/12 03:54:06;;;;;;;10.68;3.13;;;;;;;;;;4969355;28;20165;-74
2024/01/12 03:56:33;;;;;;;13.32;3.10;;;;;;;;;;4970790;28;20130;-73
2024/01/12 03:59:00;;;;;;;10.90;2.78;;;;;;;;;;4966992;28;20051;-74
2024/01/12 04:01:28;;;;;;;15.05;3.38;;;;;;;;;;4969490;28;20125;-74
2024/01/12 04:03:55;;;;;;;23.08;3.13;;;;;;;;;;4968072;28;20089;-74
2024/01/12 04:06:23;;;;;;;14.00;3.00;;;;;;;;;;4968390;28;20056;-74
2024/01/12 04:08:51;;;;;;;11.15;2.95;;;;;;;;;;4968451;28;20058;-74
2024/01/12 04:11:22;;;;;;;16.00;3.33;;;;;;;;;;4962471;28;20087;-74
2024/01/12 04:13:49;;;;;;;16.58;3.25;;;;;;;;;;4969366;28;20434;-74
2024/01/12 04:16:16;;;;;;;14.02;2.90;;;;;;;;;;4969048;28;20570;-74
2024/01/12 04:18:44;;;;;;;14.93;2.88;;;;;;;;;;4968265;28;20043;-74
2024/01/12 04:21:11;;;;;;;15.82;3.03;;;;;;;;;;4969160;28;20042;-75
2024/01/12 04:23:41;;;;;;;14.57;3.08;;;;;;;;;;4968137;28;20406;-74
2024/01/12 04:26:08;;;;;;;23.50;3.47;;;;;;;;;;4968509;28;20525;-74
2024/01/12 04:28:35;;;;;;;22.48;2.70;;;;;;;;;;4968858;28;20046;-75
2024/01/12 04:31:03;;;;;;;18.40;2.47;;;;;;;;;;4970667;28;20524;-74
2024/01/12 04:33:33;;;;;;;21.60;2.65;;;;;;;;;;4968841;28;20057;-75
2024/01/12 04:36:01;;;;;;;19.25;2.22;;;;;;;;;;4968927;28;20078;-74
2024/01/12 04:38:29;;;;;;;24.90;2.42;;;;;;;;;;4968619;28;20047;-72
2024/01/12 04:40:57;;;;;;;15.20;2.13;;;;;;;;;;4967494;28;20046;-74
2024/01/12 04:43:25;;;;;;;14.88;2.58;;;;;;;;;;4969512;28;20735;-72
2024/01/12 04:45:52;;;;;;;13.70;2.00;;;;;;;;;;4968873;28;20061;-74
2024/01/12 04:48:19;;;;;;;11.75;2.08;;;;;;;;;;4953396;28;20051;-74
2024/01/12 04:50:46;;;;;;;20.20;2.13;;;;;;;;;;4954873;28;20059;-74
2024/01/12 04:53:14;;;;;;;16.45;2.80;;;;;;;;;;4954178;28;20134;-74
2024/01/12 04:55:41;;;;;;;15.60;1.88;;;;;;;;;;4931260;28;20077;-74
2024/01/12 04:58:10;;;;;;;15.85;2.15;;;;;;;;;;4947775;28;20066;-75
2024/01/12 05:00:37;;;;;;;15.20;2.72;;;;;;;;;;4934109;28;20085;-72
2024/01/12 05:03:05;;;;;;;14.13;2.47;;;;;;;;;;4948986;29;20051;-74
2024/01/12 05:05:32;;;;;;;14.48;2.00;;;;;;;;;;4951325;28;20053;-74
2024/01/12 05:08:00;;;;;;;14.18;2.90;;;;;;;;;;4948725;28;20051;-74
2024/01/12 05:10:27;;;;;;;19.60;2.85;;;;;;;;;;4946297;28;20059;-74
2024/01/12 05:12:54;;;;;;;10.40;2.00;;;;;;;;;;4947306;28;20059;-74
2024/01/12 05:15:23;;;;;;;18.50;2.47;;;;;;;;;;4944930;28;20047;-74
2024/01/12 05:17:50;;;;;;;14.55;2.15;;;;;;;;;;4946136;28;20062;-74
2024/01/12 05:20:19;;;;;;;22.83;2.42;;;;;;;;;;4952468;28;20050;-74
2024/01/12 05:22:47;;;;;;;21.85;2.50;;;;;;;;;;4954121;28;20059;-74
2024/01/12 05:25:14;;;;;;;21.35;2.22;;;;;;;;;;4953617;28;20047;-74
2024/01/12 05:27:41;;;;;;;31.45;3.10;;;;;;;;;;4947484;29;20055;-73
2024/01/12 05:30:09;;;;;;;35.22;4.13;;;;;;;;;;4933946;28;20059;-75
2024/01/12 05:32:38;;;;;;;20.42;4.30;;;;;;;;;;4948521;28;20051;-74
2024/01/12 05:35:05;;;;;;;19.17;4.18;;;;;;;;;;4952935;28;20483;-74
2024/01/12 05:37:32;;;;;;;26.77;5.10;;;;;;;;;;4937098;29;20065;-74
2024/01/12 05:40:00;;;;;;;20.77;4.82;;;;;;;;;;4934468;28;20051;-74
2024/01/12 05:42:27;;;;;;;24.30;2.90;;;;;;;;;;4954421;28;20051;-74
2024/01/12 05:44:54;;;;;;;21.50;2.42;;;;;;;;;;4935118;29;20066;-74
2024/01/12 05:47:21;;;;;;;14.43;2.17;;;;;;;;;;4963329;28;20055;-74
2024/01/12 05:49:50;;;;;;;19.17;2.83;;;;;;;;;;4970765;28;20055;-75
2024/01/12 05:52:17;;;;;;;15.88;1.67;;;;;;;;;;4967222;28;20057;-74
2024/01/12 05:54:44;;;;;;;17.92;1.60;;;;;;;;;;4970656;28;20055;-75
2024/01/12 05:57:11;;;;;;;13.10;1.92;;;;;;;;;;4971769;28;20047;-74
2024/01/12 05:59:39;;;;;;;17.00;1.65;;;;;;;;;;4972159;28;20054;-74
2024/01/12 06:02:06;;;;;;;23.17;2.22;;;;;;;;;;4962364;28;20047;-74
2024/01/12 06:04:33;;;;;;;17.13;1.83;;;;;;;;;;4965886;28;20130;-74
2024/01/12 06:07:02;;;;;;;23.20;2.33;;;;;;;;;;4971320;28;20050;-75
2024/01/12 06:09:29;;;;;;;15.70;2.17;;;;;;;;;;4969644;28;20475;-74
2024/01/12 06:11:57;;;;;;;35.80;3.28;;;;;;;;;;4968065;28;20059;-74
2024/01/12 06:14:24;;;;;;;20.35;1.73;;;;;;;;;;4969715;28;20043;-74
2024/01/12 06:16:52;;;;;;;17.33;1.65;;;;;;;;;;4966682;28;20063;-75
2024/01/12 06:19:19;;;;;;;16.23;1.67;;;;;;;;;;4969651;28;20518;-73
2024/01/12 06:21:46;;;;;;;15.68;1.70;;;;;;;;;;4962011;28;20047;-73
2024/01/12 06:24:15;;;;;;;19.90;1.60;;;;;;;;;;4970124;28;20084;-73
2024/01/12 06:26:43;;;;;;;18.80;1.67;;;;;;;;;;4969625;28;20121;-74
2024/01/12 06:29:10;;;;;;;14.23;2.25;;;;;;;;;;4965753;28;20058;-75
2024/01/12 06:31:37;;;;;;;15.25;1.77;;;;;;;;;;4965670;28;20054;-73
2024/01/12 06:34:04;;;;;;;19.38;2.20;;;;;;;;;;4970932;28;20078;-73
2024/01/12 06:36:32;;;;;;;14.93;2.25;;;;;;;;;;4970614;28;20046;-74
2024/01/12 06:38:59;;;;;;;18.25;2.17;;;;;;;;;;4970398;28;20050;-74
2024/01/12 06:41:27;;;;;;;17.65;2.08;;;;;;;;;;4965355;28;20055;-73
2024/01/12 06:43:55;;;;;;;16.77;1.70;;;;;;;;;;4967163;28;20074;-74
2024/01/12 06:46:22;;;;;;;16.45;1.73;;;;;;;;;;4966206;28;20062;-74
2024/01/12 06:48:49;;;;;;;19.50;2.30;;;;;;;;;;4970565;28;20141;-74
2024/01/12 06:51:22;;;;;;;15.43;2.00;;;;;;;;;;4970515;28;20089;-74
2024/01/12 06:53:49;;;;;;;15.75;3.08;;;;;;;;;;4961081;28;20074;-74
2024/01/12 06:56:20;;;;;;;34.03;6.95;;;;;;;;;;4964317;28;20634;-73
2024/01/12 06:58:48;;;;;;;12.95;3.70;;;;;;;;;;4969425;28;20077;-73
2024/01/12 07:01:19;;;;;;;32.95;12.35;;;;;;;;;;4968555;28;20051;-74
2024/01/12 07:03:46;;;;;;;16.25;5.00;;;;;;;;;;4967277;28;20050;-74
2024/01/12 07:06:13;;;;;;;27.25;4.03;;;;;;;;;;4969847;28;20529;-74
2024/01/12 07:08:41;;;;;;;24.25;6.18;;;;;;;;;;4968840;28;20565;-74
2024/01/12 07:11:08;;;;;;;22.05;4.05;;;;;;;;;;4968792;28;20498;-74
2024/01/12 07:13:35;;;;;;;15.63;2.97;;;;;;;;;;4969912;28;20479;-74
2024/01/12 07:16:04;;;;;;;14.05;1.98;;;;;;;;;;4968636;28;20063;-74
2024/01/12 07:18:31;;;;;;;8.05;1.58;;;;;;;;;;4971669;28;20105;-74
2024/01/12 07:21:03;;;;;;;14.25;1.58;;;;;;;;;;4964566;28;20062;-74
2024/01/12 07:23:30;;;;;;;14.20;1.38;;;;;;;;;;4963958;28;20519;-74
2024/01/12 07:25:58;;;;;;;12.02;1.42;;;;;;;;;;4964427;28;20121;-74
2024/01/12 07:28:25;;;;;;;12.23;3.40;;;;;;;;;;4965637;28;20055;-74
2024/01/12 07:30:54;;;;;;;14.73;1.70;;;;;;;;;;4963662;28;20051;-73
2024/01/12 07:33:23;;;;;;;15.35;1.88;;;;;;;;;;4963781;28;20051;-74
2024/01/12 07:35:50;;;;;;;18.27;1.92;;;;;;;;;;4961301;28;20502;-74
2024/01/12 07:38:18;;;;;;;18.27;1.75;;;;;;;;;;4970756;28;20591;-74
2024/01/12 07:40:46;;;;;;;20.10;2.67;;;;;;;;;;4968257;28;20058;-74
2024/01/12 07:43:14;;;;;;;26.33;2.35;;;;;;;;;;4970454;28;20081;-74
2024/01/12 07:45:41;;;;;;;18.05;2.38;;;;;;;;;;4968870;28;20046;-74
2024/01/12 07:48:08;;;;;;;18.60;2.50;;;;;;;;;;4969306;28;20061;-73
2024/01/12 07:50:37;;;;;;;19.88;3.40;;;;;;;;;;4969596;28;20054;-74
2024/01/12 07:53:05;;;;;;;17.02;2.40;;;;;;;;;;4969710;28;20051;-74
2024/01/12 07:55:32;;;;;;;15.88;3.50;;;;;;;;;;4968228;28;20054;-73
2024/01/12 07:57:59;;;;;;;15.70;2.47;;;;;;;;;;4968440;28;20051;-74
2024/01/12 08:00:26;;;;;;;11.25;1.73;;;;;;;;;;4967696;28;20054;-74
2024/01/12 08:02:54;;;;;;;15.50;1.90;;;;;;;;;;4969040;28;20051;-74
2024/01/12 08:05:22;;;;;;;17.20;2.13;;;;;;;;;;4969574;28;20053;-74
2024/01/12 08:07:50;;;;;;;24.73;1.85;;;;;;;;;;4967681;28;20061;-74
2024/01/12 08:10:20;;;;;;;19.98;3.45;;;;;;;;;;4970645;28;20553;-74
2024/01/12 08:12:49;;;;;;;13.50;2.83;;;;;;;;;;4967534;28;20414;-74
2024/01/12 08:15:17;;;;;;;25.92;3.53;;;;;;;;;;4970261;28;20058;-74
2024/01/12 08:17:44;;;;;;;17.02;2.60;;;;;;;;;;4968961;28;20038;-74
2024/01/12 08:20:12;;;;;;;33.38;9.65;;;;;;;;;;4968789;28;20035;-74
2024/01/12 08:22:39;;;;;;;36.60;12.65;;;;;;;;;;4960872;28;20051;-74
2024/01/12 08:25:09;;;;;;;14.45;3.38;;;;;;;;;;4966772;28;20087;-74
2024/01/12 08:27:36;;;;;;;19.42;5.00;;;;;;;;;;4966022;28;20058;-74
2024/01/12 08:30:03;;;;;;;18.02;4.05;;;;;;;;;;4966918;28;20113;-74
2024/01/12 08:32:31;;;;;;;34.95;8.82;;;;;;;;;;4968964;28;20557;-74
2024/01/12 08:34:58;;;;;;;19.45;5.93;;;;;;;;;;4969991;28;20058;-74
2024/01/12 08:37:25;;;;;;;56.83;18.00;;;;;;;;;;4964952;28;20047;-74
2024/01/12 08:39:52;;;;;;;30.05;10.38;;;;;;;;;;4967504;28;20071;-74
2024/01/12 08:42:21;;;;;;;46.38;12.57;;;;;;;;;;4963980;28;20043;-73
2024/01/12 08:44:49;;;;;;;27.38;7.85;;;;;;;;;;4963055;28;20055;-74
2024/01/12 08:47:18;;;;;;;22.77;3.90;;;;;;;;;;4968572;28;20154;-74
2024/01/12 08:49:46;;;;;;;30.58;11.75;;;;;;;;;;4964308;28;20047;-73
2024/01/12 08:52:13;;;;;;;20.77;3.47;;;;;;;;;;4967253;28;20047;-74
2024/01/12 08:54:40;;;;;;;11.25;2.53;;;;;;;;;;4968231;28;20046;-75
2024/01/12 08:57:07;;;;;;;18.45;3.10;;;;;;;;;;4972761;28;20065;-74
2024/01/12 08:59:36;;;;;;;17.65;2.00;;;;;;;;;;4968917;28;20051;-73
2024/01/12 09:02:03;;;;;;;11.25;1.65;;;;;;;;;;4972547;28;20054;-73
2024/01/12 09:04:31;;;;;;;10.77;2.00;;;;;;;;;;4971202;28;20042;-74
2024/01/12 09:06:58;;;;;;;15.80;2.58;;;;;;;;;;4973343;28;20113;-74
2024/01/12 09:09:25;;;;;;;21.60;3.13;;;;;;;;;;4971176;28;20039;-75
2024/01/12 09:11:53;;;;;;;17.73;2.65;;;;;;;;;;4971851;28;20066;-74
2024/01/12 09:14:20;;;;;;;19.67;5.13;;;;;;;;;;4970827;28;20055;-72
2024/01/12 09:16:49;;;;;;;37.70;12.55;;;;;;;;;;4972540;28;20054;-72
2024/01/12 09:19:17;;;;;;;50.67;15.07;;;;;;;;;;4970432;28;20055;-71
2024/01/12 09:21:45;;;;;;;31.30;12.50;;;;;;;;;;4967193;28;20049;-71
2024/01/12 09:24:12;;;;;;;46.15;16.27;;;;;;;;;;4968543;28;20073;-71
2024/01/12 09:26:39;;;;;;;31.83;11.75;;;;;;;;;;4968786;28;20533;-71
2024/01/12 09:29:06;;;;;;;31.63;11.68;;;;;;;;;;4969968;28;20058;-71
2024/01/12 09:31:34;;;;;;;27.60;9.95;;;;;;;;;;4971346;28;20058;-71
2024/01/12 09:34:02;;;;;;;27.13;6.10;;;;;;;;;;4968641;28;20050;-71
2024/01/12 09:36:29;;;;;;;21.52;3.70;;;;;;;;;;4968810;28;20079;-71
2024/01/12 09:38:57;;;;;;;18.38;2.40;;;;;;;;;;4971029;28;20047;-71
2024/01/12 09:41:30;;;;;;;23.45;2.67;;;;;;;;;;4968607;28;20051;-72
2024/01/12 09:43:59;;;;;;;19.88;2.83;;;;;;;;;;4970048;28;20051;-71
2024/01/12 09:46:30;;;;;;;18.05;3.28;;;;;;;;;;4971207;28;20051;-71
2024/01/12 09:48:57;;;;;;;14.38;1.60;;;;;;;;;;4970363;28;20378;-71
2024/01/12 09:51:28;;;;;;;11.13;1.67;;;;;;;;;;4968981;28;20057;-71
2024/01/12 09:53:56;;;;;;;14.45;1.60;;;;;;;;;;4972172;28;20058;-71
2024/01/12 09:56:23;;;;;;;19.77;1.60;;;;;;;;;;4965442;28;20055;-71
2024/01/12 09:58:53;;;;;;;13.85;1.63;;;;;;;;;;4968964;28;20133;-71
2024/01/12 10:01:21;;;;;;;15.43;1.88;;;;;;;;;;4970584;28;20051;-71
2024/01/12 10:03:48;;;;;;;11.23;1.58;;;;;;;;;;4969560;28;20109;-71
2024/01/12 10:06:15;;;;;;;13.38;1.52;;;;;;;;;;4972158;28;20390;-71
2024/01/12 10:08:44;;;;;;;11.05;1.10;;;;;;;;;;4972111;28;20051;-71
2024/01/12 10:11:11;;;;;;;8.50;1.73;;;;;;;;;;4971758;28;20047;-71
2024/01/12 10:13:38;;;;;;;9.77;1.00;;;;;;;;;;4972279;28;20084;-71
2024/01/12 10:16:07;;;;;;;16.23;1.67;;;;;;;;;;4971316;28;20055;-71
2024/01/12 10:18:34;;;;;;;12.23;1.60;;;;;;;;;;4971410;28;20117;-71
2024/01/12 10:21:01;;;;;;;15.20;2.00;;;;;;;;;;4971105;28;20085;-71
2024/01/12 10:23:29;;;;;;;18.88;2.13;;;;;;;;;;4971233;28;20757;-71
2024/01/12 10:26:01;;;;;;;16.17;2.30;;;;;;;;;;4970762;28;20130;-72
2024/01/12 10:28:29;;;;;;;12.77;2.80;;;;;;;;;;4968326;28;20055;-71
2024/01/12 10:30:56;;;;;;;17.00;3.55;;;;;;;;;;4970504;28;20051;-71
2024/01/12 10:33:23;;;;;;;17.98;2.92;;;;;;;;;;4970151;28;20061;-71
2024/01/12 10:35:58;;;;;;;28.98;4.00;;;;;;;;;;4970290;28;20047;-71
2024/01/12 10:38:25;;;;;;;17.20;2.25;;;;;;;;;;4971549;28;20410;-71
2024/01/12 10:40:53;;;;;;;16.30;1.40;;;;;;;;;;4964608;28;20073;-71
2024/01/12 10:43:24;;;;;;;11.35;1.35;;;;;;;;;;4969894;28;20059;-71
2024/01/12 10:45:53;;;;;;;19.42;1.77;;;;;;;;;;4966176;28;20085;-71
2024/01/12 10:48:22;;;;;;;13.00;1.40;;;;;;;;;;4967308;28;20143;-71
2024/01/12 10:50:52;;;;;;;15.43;2.08;;;;;;;;;;4968827;28;20078;-71
2024/01/12 10:53:22;;;;;;;18.75;1.83;;;;;;;;;;4968328;28;20081;-71
2024/01/12 10:55:55;;;;;;;13.40;1.60;;;;;;;;;;4966554;28;20411;-71
2024/01/12 10:58:24;;;;;;;16.33;3.20;;;;;;;;;;4967120;28;20059;-71
2024/01/12 11:00:52;;;;;;;22.02;2.83;;;;;;;;;;4965703;28;20047;-71
2024/01/12 11:03:20;;;;;;;14.10;2.22;;;;;;;;;;4967146;28;20054;-71
2024/01/12 11:05:49;;;;;;;18.05;4.00;;;;;;;;;;4965650;28;20051;-71
2024/01/12 11:08:16;;;;;;;12.02;2.00;;;;;;;;;;4970768;28;20047;-71
2024/01/12 11:10:47;;;;;;;13.32;2.13;;;;;;;;;;4969380;28;20066;-71
2024/01/12 11:13:16;;;;;;;10.48;1.48;;;;;;;;;;4968076;28;20055;-72
2024/01/12 11:15:49;;;;;;;16.88;3.05;;;;;;;;;;4969156;28;20050;-71
2024/01/12 11:18:17;;;;;;;23.55;6.05;;;;;;;;;;4968326;28;20141;-71
2024/01/12 11:20:45;;;;;;;23.17;4.25;;;;;;;;;;4970088;28;20156;-71
2024/01/12 11:23:12;;;;;;;18.52;7.22;;;;;;;;;;4966123;28;20043;-71
2024/01/12 11:25:39;;;;;;;21.65;3.42;;;;;;;;;;4965925;28;20049;-71
2024/01/12 11:28:09;;;;;;;17.10;2.53;;;;;;;;;;4968283;28;20062;-72
2024/01/12 11:30:40;;;;;;;34.20;8.57;;;;;;;;;;4969089;28;20058;-72
2024/01/12 11:33:09;;;;;;;13.23;3.60;;;;;;;;;;4968235;28;20054;-72
2024/01/12 11:35:39;;;;;;;21.25;4.65;;;;;;;;;;4969158;28;20512;-72
2024/01/12 11:38:08;;;;;;;19.27;4.13;;;;;;;;;;4969208;28;20049;-72
2024/01/12 11:40:36;;;;;;;12.38;2.25;;;;;;;;;;4967675;28;20562;-72
2024/01/12 11:43:05;;;;;;;34.60;13.43;;;;;;;;;;4965691;28;20065;-72
2024/01/12 11:45:34;;;;;;;32.70;10.45;;;;;;;;;;4963412;28;20055;-72
2024/01/12 11:48:03;;;;;;;21.10;5.70;;;;;;;;;;4967534;28;20422;-72
2024/01/12 11:50:32;;;;;;;26.42;6.13;;;;;;;;;;4967228;28;20069;-72
2024/01/12 11:53:00;;;;;;;15.10;3.25;;;;;;;;;;4961965;28;20368;-72
2024/01/12 11:55:27;;;;;;;11.88;2.45;;;;;;;;;;4965864;28;20101;-72
2024/01/12 11:57:55;;;;;;;21.20;6.88;;;;;;;;;;4960933;28;20070;-72
2024/01/12 12:00:23;;;;;;;17.77;3.10;;;;;;;;;;4966551;28;20486;-72
2024/01/12 12:02:51;;;;;;;16.40;4.00;;;;;;;;;;4968987;28;20106;-72
2024/01/12 12:05:18;;;;;;;16.88;2.20;;;;;;;;;;4957328;28;20058;-72
2024/01/12 12:07:47;;;;;;;29.90;7.18;;;;;;;;;;4967157;28;20054;-72
2024/01/12 12:10:14;;;;;;;30.17;10.95;;;;;;;;;;4969794;28;20046;-72
2024/01/12 12:12:41;;;;;;;15.05;2.67;;;;;;;;;;4964360;28;20773;-72
2024/01/12 12:15:09;;;;;;;16.70;3.13;;;;;;;;;;4967865;28;20051;-72
2024/01/12 12:17:37;;;;;;;20.80;2.50;;;;;;;;;;4969128;28;20053;-72
2024/01/12 12:20:10;;;;;;;23.55;2.22;;;;;;;;;;4967362;28;21375;-72
2024/01/12 12:22:42;;;;;;;20.85;3.85;;;;;;;;;;4965510;28;21173;-72
2024/01/12 12:25:11;;;;;;;17.83;2.65;;;;;;;;;;4965033;28;20061;-72
2024/01/12 12:27:38;;;;;;;16.15;2.45;;;;;;;;;;4968096;28;20135;-72
2024/01/12 12:30:07;;;;;;;27.25;3.40;;;;;;;;;;4959604;28;20061;-72
2024/01/12 12:32:34;;;;;;;19.83;2.72;;;;;;;;;;4962285;28;20039;-71
2024/01/12 12:35:12;;;;;;;14.63;2.90;;;;;;;;;;4962035;28;20074;-72
2024/01/12 12:37:39;;;;;;;20.55;3.13;;;;;;;;;;4958075;28;20099;-72
2024/01/12 12:40:09;;;;;;;21.75;3.38;;;;;;;;;;4966292;28;20394;-72
2024/01/12 12:42:38;;;;;;;16.40;2.53;;;;;;;;;;4958129;28;20614;-72
2024/01/12 12:45:06;;;;;;;16.15;2.30;;;;;;;;;;4964804;28;20132;-72
2024/01/12 12:47:33;;;;;;;23.60;2.58;;;;;;;;;;4961764;28;20094;-72
2024/01/12 12:50:01;;;;;;;22.17;1.92;;;;;;;;;;4967307;28;20051;-72
2024/01/12 12:52:28;;;;;;;23.45;2.83;;;;;;;;;;4965030;28;20666;-72
2024/01/12 12:54:55;;;;;;;18.60;2.25;;;;;;;;;;4963098;28;20061;-72
2024/01/12 12:57:22;;;;;;;14.07;1.55;;;;;;;;;;4964840;28;20061;-72
2024/01/12 12:59:51;;;;;;;11.20;1.10;;;;;;;;;;4962463;28;20057;-72
2024/01/12 13:02:20;;;;;;;10.98;1.23;;;;;;;;;;4964893;28;20054;-72
2024/01/12 13:04:47;;;;;;;10.43;1.13;;;;;;;;;;4963094;28;20722;-71
2024/01/12 13:07:15;;;;;;;14.45;1.60;;;;;;;;;;4968128;28;20117;-72
2024/01/12 13:09:42;;;;;;;9.75;1.00;;;;;;;;;;4967697;28;20519;-71
2024/01/12 13:12:09;;;;;;;3.03;0.82;;;;;;;;;;4958934;28;20039;-71
2024/01/12 13:14:37;;;;;;;5.82;0.40;;;;;;;;;;4957836;28;20047;-71
2024/01/12 13:17:05;;;;;;;2.95;0.43;;;;;;;;;;4960168;28;20054;-71
2024/01/12 13:19:33;;;;;;;3.13;0.40;;;;;;;;;;4958961;28;20043;-71
2024/01/12 13:22:00;;;;;;;4.07;0.57;;;;;;;;;;4967454;28;20073;-71
2024/01/12 13:24:28;;;;;;;3.53;0.50;;;;;;;;;;4966740;28;20504;-71
2024/01/12 13:26:55;;;;;;;5.00;0.50;;;;;;;;;;4967647;28;20086;-72
2024/01/12 13:29:22;;;;;;;2.72;0.50;;;;;;;;;;4965259;28;20062;-72
2024/01/12 13:31:50;;;;;;;5.90;0.50;;;;;;;;;;4967597;28;20402;-72
2024/01/12 13:34:21;;;;;;;6.22;0.68;;;;;;;;;;4963454;28;20055;-72
2024/01/12 13:36:48;;;;;;;5.13;1.38;;;;;;;;;;4966626;28;20066;-72
2024/01/12 13:39:15;;;;;;;11.10;2.00;;;;;;;;;;4970484;28;20047;-72
2024/01/12 13:41:43;;;;;;;12.05;3.20;;;;;;;;;;4967332;28;20729;-71
2024/01/12 13:44:10;;;;;;;11.52;2.55;;;;;;;;;;4971502;28;20055;-71
2024/01/12 13:46:38;;;;;;;37.70;15.27;;;;;;;;;;4968064;28;20495;-72
2024/01/12 13:49:05;;;;;;;13.65;4.43;;;;;;;;;;4970700;28;20059;-71
2024/01/12 13:51:34;;;;;;;9.55;2.92;;;;;;;;;;4963961;28;20558;-72
2024/01/12 13:54:04;;;;;;;20.98;6.57;;;;;;;;;;4971586;28;20058;-72
2024/01/12 13:56:33;;;;;;;22.30;7.38;;;;;;;;;;4965731;28;20053;-71
2024/01/12 13:59:01;;;;;;;34.05;14.38;;;;;;;;;;4971120;28;20065;-72
2024/01/12 14:01:29;;;;;;;21.15;6.68;;;;;;;;;;4969610;28;20514;-72
2024/01/12 14:03:56;;;;;;;12.23;4.47;;;;;;;;;;4971324;28;20514;-73
2024/01/12 14:06:24;;;;;;;5.40;2.05;;;;;;;;;;4969577;28;20057;-72
2024/01/12 14:08:52;;;;;;;7.40;1.80;;;;;;;;;;4969173;28;20086;-72
2024/01/12 14:11:20;;;;;;;9.02;1.63;;;;;;;;;;4968886;28;20042;-72
2024/01/12 14:13:48;;;;;;;10.98;3.03;;;;;;;;;;4970511;28;20205;-72
2024/01/12 14:16:15;;;;;;;8.43;2.28;;;;;;;;;;4972421;28;20061;-72
2024/01/12 14:18:43;;;;;;;7.57;2.38;;;;;;;;;;4970962;28;20117;-72
2024/01/12 14:21:10;;;;;;;4.75;1.08;;;;;;;;;;4971629;28;20078;-72
2024/01/12 14:23:37;;;;;;;8.10;1.23;;;;;;;;;;4970454;28;20046;-72
2024/01/12 14:26:06;;;;;;;6.45;1.30;;;;;;;;;;4970040;28;20062;-72
2024/01/12 14:28:34;;;;;;;5.82;1.27;;;;;;;;;;4966267;28;20113;-72
2024/01/12 14:31:03;;;;;;;11.40;1.40;;;;;;;;;;4970070;28;20049;-71
2024/01/12 14:33:33;;;;;;;11.00;3.08;;;;;;;;;;4970823;28;20101;-72